Time;durP1;ratioP1;P1;durP2;ratioP2;P2;SDS_P1;SDS_P2;PMS_P1;PMS_P2;Temp;Humidity;BMP_temperature;BMP_pressure;BME280_temperature;BME280_humidity;BME280_pressure;Samples;Min_cycle;Max_cycle;Signal;HPM_P1;HPM_P2
2023/07/22 00:00:51;;;;;;;;;;;;;;;18.87;100.00;101241.03;5061731;28;1218;-81
2023/07/22 00:03:17;;;;;;;;;;;;;;;18.72;100.00;101236.41;5062055;28;822;-81
2023/07/22 00:05:43;;;;;;;;;;;;;;;18.66;100.00;101232.50;5061450;28;827;-81
2023/07/22 00:08:09;;;;;;;;;;;;;;;18.69;100.00;101240.34;5059980;28;1871;-80
2023/07/22 00:10:40;;;;;;;;;;;;;;;18.65;100.00;101235.38;5060843;28;1284;-81
2023/07/22 00:13:07;;;;;;;;;;;;;;;18.60;100.00;101233.16;5061550;28;546;-81
2023/07/22 00:15:33;;;;;;;;;;;;;;;18.59;100.00;101236.88;5061991;28;805;-80
2023/07/22 00:17:59;;;;;;;;;;;;;;;18.57;100.00;101234.31;5061785;28;814;-81
2023/07/22 00:20:25;;;;;;;;;;;;;;;18.42;100.00;101238.69;5064171;28;1184;-81
2023/07/22 00:22:52;;;;;;;;;;;;;;;18.39;100.00;101243.63;5065609;28;806;-80
2023/07/22 00:25:18;;;;;;;;;;;;;;;18.40;100.00;101239.88;5066306;28;950;-81
2023/07/22 00:27:44;;;;;;;;;;;;;;;18.39;100.00;101239.03;5065902;28;1939;-81
2023/07/22 00:30:10;;;;;;;;;;;;;;;18.41;100.00;101238.88;5063915;28;1195;-81
2023/07/22 00:32:37;;;;;;;;;;;;;;;18.46;100.00;101240.06;5065746;28;803;-81
2023/07/22 00:35:06;;;;;;;;;;;;;;;18.52;100.00;101238.56;5065476;28;817;-81
2023/07/22 00:37:33;;;;;;;;;;;;;;;18.48;100.00;101240.72;5065445;28;794;-81
2023/07/22 00:39:59;;;;;;;;;;;;;;;18.50;100.00;101233.28;5064373;28;1180;-80
2023/07/22 00:42:25;;;;;;;;;;;;;;;18.52;100.00;101233.13;5065339;28;744;-81
2023/07/22 00:44:51;;;;;;;;;;;;;;;18.54;100.00;101234.66;5066008;28;795;-81
2023/07/22 00:47:17;;;;;;;;;;;;;;;18.55;100.00;101238.22;5065370;28;886;-80
2023/07/22 00:49:47;;;;;;;;;;;;;;;18.56;100.00;101238.03;5064501;28;1898;-82
2023/07/22 00:52:13;;;;;;;;;;;;;;;18.52;100.00;101236.69;5065030;28;799;-81
2023/07/22 00:54:39;;;;;;;;;;;;;;;18.51;100.00;101240.41;5065293;28;838;-81
2023/07/22 00:57:06;;;;;;;;;;;;;;;18.48;100.00;101235.28;5065564;28;844;-81
2023/07/22 00:59:32;;;;;;;;;;;;;;;18.43;100.00;101231.38;5065190;28;766;-80
2023/07/22 01:01:58;;;;;;;;;;;;;;;18.41;100.00;101239.72;5080133;28;1341;-80
2023/07/22 01:04:25;;;;;;;;;;;;;;;18.25;100.00;101234.22;5065249;28;872;-82
2023/07/22 01:06:53;;;;;;;;;;;;;;;18.18;100.00;101234.00;5064698;28;748;-80
2023/07/22 01:09:18;;;;;;;;;;;;;;;18.21;100.00;101232.84;5064222;28;1894;-80
2023/07/22 01:11:44;;;;;;;;;;;;;;;18.24;100.00;101221.66;5065228;28;1176;-80
2023/07/22 01:14:10;;;;;;;;;;;;;;;18.25;100.00;101223.34;5065106;28;832;-80
2023/07/22 01:16:37;;;;;;;;;;;;;;;18.26;100.00;101217.75;5064880;28;891;-81
2023/07/22 01:19:04;;;;;;;;;;;;;;;18.23;100.00;101222.66;5064771;28;793;-81
2023/07/22 01:21:32;;;;;;;;;;;;;;;18.23;100.00;101228.94;5064070;28;1168;-80
2023/07/22 01:23:58;;;;;;;;;;;;;;;18.28;100.00;101223.00;5065005;28;817;-80
2023/07/22 01:26:24;;;;;;;;;;;;;;;18.28;100.00;101228.44;5065141;28;842;-80
2023/07/22 01:29:02;;;;;;;;;;;;;;;18.17;100.00;101224.16;5064114;28;2045;-81
2023/07/22 01:31:28;;;;;;;;;;;;;;;18.19;100.00;101224.00;5063076;28;1237;-80
2023/07/22 01:33:54;;;;;;;;;;;;;;;18.15;100.00;101220.75;5062668;28;798;-80
2023/07/22 01:36:20;;;;;;;;;;;;;;;18.12;100.00;101226.53;5064225;28;694;-80
2023/07/22 01:38:46;;;;;;;;;;;;;;;18.15;100.00;101219.91;5064200;28;822;-80
2023/07/22 01:41:12;;;;;;;;;;;;;;;18.16;100.00;101227.88;5064447;28;1199;-80
2023/07/22 01:43:38;;;;;;;;;;;;;;;18.18;100.00;101222.28;5064069;28;814;-80
2023/07/22 01:46:03;;;;;;;;;;;;;;;18.17;100.00;101221.44;5064626;28;904;-81
2023/07/22 01:48:29;;;;;;;;;;;;;;;18.18;100.00;101217.72;5063969;28;1965;-81
2023/07/22 01:50:55;;;;;;;;;;;;;;;18.17;100.00;101224.16;5063558;28;1247;-80
2023/07/22 01:53:21;;;;;;;;;;;;;;;18.15;100.00;101228.91;5064296;28;866;-80
2023/07/22 01:55:47;;;;;;;;;;;;;;;18.12;100.00;101225.69;5063714;28;803;-80
2023/07/22 01:58:13;;;;;;;;;;;;;;;18.12;100.00;101228.41;5063359;28;827;-80
2023/07/22 02:00:39;;;;;;;;;;;;;;;18.14;100.00;101226.34;5062569;28;1262;-81
2023/07/22 02:03:05;;;;;;;;;;;;;;;18.09;100.00;101223.28;5062794;28;1201;-80
2023/07/22 02:05:31;;;;;;;;;;;;;;;18.06;100.00;101216.31;5064495;28;795;-80
2023/07/22 02:07:57;;;;;;;;;;;;;;;18.07;100.00;101215.28;5063991;28;804;-80
2023/07/22 02:10:23;;;;;;;;;;;;;;;18.07;100.00;101220.72;5063278;28;1862;-81
2023/07/22 02:12:49;;;;;;;;;;;;;;;18.04;100.00;101219.19;5064564;28;788;-80
2023/07/22 02:15:15;;;;;;;;;;;;;;;18.04;100.00;101229.19;5064099;28;755;-80
2023/07/22 02:17:41;;;;;;;;;;;;;;;18.04;100.00;101226.50;5063538;28;832;-81
2023/07/22 02:20:08;;;;;;;;;;;;;;;18.01;100.00;101226.81;5063032;28;1245;-81
2023/07/22 02:22:34;;;;;;;;;;;;;;;17.96;100.00;101224.56;5064135;28;874;-80
2023/07/22 02:25:00;;;;;;;;;;;;;;;17.92;100.00;101223.22;5062965;28;834;-81
2023/07/22 02:27:26;;;;;;;;;;;;;;;17.87;100.00;101225.53;5063778;28;831;-81
2023/07/22 02:29:52;;;;;;;;;;;;;;;17.82;100.00;101227.91;5063145;28;1882;-80
2023/07/22 02:32:18;;;;;;;;;;;;;;;17.80;100.00;101229.94;5063984;28;822;-80
2023/07/22 02:34:44;;;;;;;;;;;;;;;17.77;100.00;101232.97;5064254;28;862;-80
2023/07/22 02:37:10;;;;;;;;;;;;;;;17.73;100.00;101234.31;5063436;28;795;-80
2023/07/22 02:39:37;;;;;;;;;;;;;;;17.70;100.00;101235.47;5062954;28;842;-81
2023/07/22 02:42:03;;;;;;;;;;;;;;;17.70;100.00;101237.34;5063833;28;1250;-81
2023/07/22 02:44:29;;;;;;;;;;;;;;;17.69;100.00;101239.19;5063518;28;795;-80
2023/07/22 02:46:55;;;;;;;;;;;;;;;17.69;100.00;101246.44;5064035;28;900;-80
2023/07/22 02:49:21;;;;;;;;;;;;;;;17.69;100.00;101254.56;5062877;28;1871;-80
2023/07/22 02:51:47;;;;;;;;;;;;;;;17.71;100.00;101252.59;5064113;28;1168;-80
2023/07/22 02:54:13;;;;;;;;;;;;;;;17.69;100.00;101252.75;5063321;28;889;-80
2023/07/22 02:56:39;;;;;;;;;;;;;;;17.67;100.00;101249.31;5063520;28;894;-81
2023/07/22 02:59:05;;;;;;;;;;;;;;;17.64;100.00;101263.19;5063913;28;802;-81
2023/07/22 03:01:31;;;;;;;;;;;;;;;17.60;100.00;101255.53;5062679;28;1252;-81
2023/07/22 03:03:57;;;;;;;;;;;;;;;17.60;100.00;101256.41;5062608;28;822;-80
2023/07/22 03:06:26;;;;;;;;;;;;;;;17.61;100.00;101259.97;5063340;28;840;-80
2023/07/22 03:08:53;;;;;;;;;;;;;;;17.57;100.00;101251.28;5062913;28;1965;-81
2023/07/22 03:11:19;;;;;;;;;;;;;;;17.55;100.00;101253.31;5062749;28;1203;-80
2023/07/22 03:13:45;;;;;;;;;;;;;;;17.56;100.00;101256.88;5062984;28;739;-81
2023/07/22 03:16:11;;;;;;;;;;;;;;;17.53;100.00;101260.75;5062443;28;827;-81
2023/07/22 03:18:39;;;;;;;;;;;;;;;17.55;100.00;101257.88;5062355;28;791;-80
2023/07/22 03:21:05;;;;;;;;;;;;;;;17.56;100.00;101259.56;5061892;28;1261;-80
2023/07/22 03:23:31;;;;;;;;;;;;;;;17.55;100.00;101263.31;5062224;28;871;-80
2023/07/22 03:25:57;;;;;;;;;;;;;;;17.53;100.00;101266.19;5062044;28;961;-81
2023/07/22 03:28:25;;;;;;;;;;;;;;;17.50;100.00;101271.91;5062858;28;870;-80
2023/07/22 03:30:52;;;;;;;;;;;;;;;17.47;100.00;101269.50;5062316;28;1894;-80
2023/07/22 03:33:18;;;;;;;;;;;;;;;17.43;100.00;101271.69;5063518;28;798;-80
2023/07/22 03:35:44;;;;;;;;;;;;;;;17.40;100.00;101268.44;5062597;28;751;-81
2023/07/22 03:38:10;;;;;;;;;;;;;;;17.31;100.00;101275.69;5062835;28;783;-81
2023/07/22 03:40:37;;;;;;;;;;;;;;;17.35;100.00;101268.06;5061696;28;1193;-80
2023/07/22 03:43:03;;;;;;;;;;;;;;;17.35;100.00;101274.34;5062769;28;831;-80
2023/07/22 03:45:29;;;;;;;;;;;;;;;17.33;100.00;101264.66;5063449;28;833;-81
2023/07/22 03:48:00;;;;;;;;;;;;;;;17.35;100.00;101266.22;5062493;28;743;-80
2023/07/22 03:50:26;;;;;;;;;;;;;;;17.35;100.00;101273.50;5062227;28;1870;-80
2023/07/22 03:52:53;;;;;;;;;;;;;;;17.37;100.00;101271.47;5063099;28;821;-81
2023/07/22 03:55:22;;;;;;;;;;;;;;;17.38;100.00;101265.03;5061857;28;787;-80
2023/07/22 03:57:48;;;;;;;;;;;;;;;17.34;100.00;101261.78;5063562;28;803;-81
2023/07/22 04:00:14;;;;;;;;;;;;;;;17.37;100.00;101261.47;5061792;28;1282;-80
2023/07/22 04:02:40;;;;;;;;;;;;;;;17.38;100.00;101265.88;5062899;28;806;-80
2023/07/22 04:05:06;;;;;;;;;;;;;;;17.33;100.00;101264.66;5062833;28;899;-80
2023/07/22 04:07:32;;;;;;;;;;;;;;;17.30;100.00;101267.66;5063077;28;766;-80
2023/07/22 04:09:58;;;;;;;;;;;;;;;17.28;100.00;101264.28;5061821;28;1906;-80
2023/07/22 04:12:24;;;;;;;;;;;;;;;17.30;100.00;101271.22;5063137;28;719;-80
2023/07/22 04:14:50;;;;;;;;;;;;;;;17.35;100.00;101274.34;5063145;28;874;-80
2023/07/22 04:17:16;;;;;;;;;;;;;;;17.37;100.00;101277.75;5062734;28;811;-81
2023/07/22 04:19:43;;;;;;;;;;;;;;;17.36;100.00;101284.19;5062762;28;890;-80
2023/07/22 04:22:09;;;;;;;;;;;;;;;17.39;100.00;101285.72;5062415;28;707;-80
2023/07/22 04:24:35;;;;;;;;;;;;;;;17.39;100.00;101289.28;5063561;28;801;-80
2023/07/22 04:27:01;;;;;;;;;;;;;;;17.37;100.00;101291.31;5062691;28;850;-81
2023/07/22 04:29:27;;;;;;;;;;;;;;;17.37;100.00;101295.88;5061762;28;1898;-81
2023/07/22 04:32:00;;;;;;;;;;;;;;;17.40;100.00;101291.00;5062311;28;1197;-81
2023/07/22 04:34:32;;;;;;;;;;;;;;;17.47;100.00;101294.78;5062362;28;542;-81
2023/07/22 04:36:58;;;;;;;;;;;;;;;17.49;100.00;101298.16;5062198;28;823;-80
2023/07/22 04:39:25;;;;;;;;;;;;;;;17.53;100.00;101303.31;5062424;28;814;-81
2023/07/22 04:41:51;;;;;;;;;;;;;;;17.57;100.00;101296.53;5062797;28;1236;-81
2023/07/22 04:44:19;;;;;;;;;;;;;;;17.62;100.00;101303.22;5061951;28;790;-80
2023/07/22 04:46:45;;;;;;;;;;;;;;;17.61;100.00;101297.94;5062141;28;877;-81
2023/07/22 04:49:11;;;;;;;;;;;;;;;17.56;100.00;101300.28;5061405;28;1890;-81
2023/07/22 04:51:37;;;;;;;;;;;;;;;17.58;100.00;101301.81;5061844;28;1174;-80
2023/07/22 04:54:03;;;;;;;;;;;;;;;17.61;100.00;101292.53;5061840;28;805;-81
2023/07/22 04:56:30;;;;;;;;;;;;;;;17.62;100.00;101300.50;5062556;28;751;-80
2023/07/22 04:58:56;;;;;;;;;;;;;;;17.63;100.00;101307.63;5062448;28;850;-81
2023/07/22 05:01:22;;;;;;;;;;;;;;;17.68;100.00;101301.72;5061345;28;1172;-81
2023/07/22 05:03:48;;;;;;;;;;;;;;;17.70;100.00;101302.47;5061370;28;720;-80
2023/07/22 05:06:14;;;;;;;;;;;;;;;17.78;100.00;101303.34;5062908;28;806;-81
2023/07/22 05:08:40;;;;;;;;;;;;;;;17.84;100.00;101309.16;5065331;28;739;-81
2023/07/22 05:11:06;;;;;;;;;;;;;;;17.90;100.00;101303.09;5064536;28;1932;-81
2023/07/22 05:13:32;;;;;;;;;;;;;;;17.93;100.00;101305.50;5065705;28;899;-80
2023/07/22 05:15:58;;;;;;;;;;;;;;;17.99;100.00;101303.00;5064017;28;878;-81
2023/07/22 05:18:24;;;;;;;;;;;;;;;17.96;100.00;101303.28;5064917;28;847;-81
2023/07/22 05:20:50;;;;;;;;;;;;;;;18.03;100.00;101298.94;5063539;28;1168;-80
2023/07/22 05:23:16;;;;;;;;;;;;;;;18.07;100.00;101299.44;5064878;28;846;-81
2023/07/22 05:25:42;;;;;;;;;;;;;;;18.12;100.00;101297.13;5063217;28;855;-80
2023/07/22 05:28:08;;;;;;;;;;;;;;;18.13;100.00;101303.41;5063738;28;923;-80
2023/07/22 05:30:34;;;;;;;;;;;;;;;18.12;100.00;101291.69;5063720;28;1897;-81
2023/07/22 05:33:00;;;;;;;;;;;;;;;18.13;100.00;101293.38;5064919;28;921;-81
2023/07/22 05:35:26;;;;;;;;;;;;;;;18.26;100.00;101301.94;5064744;28;902;-80
2023/07/22 05:37:52;;;;;;;;;;;;;;;18.35;100.00;101300.97;5064492;28;809;-80
2023/07/22 05:40:18;;;;;;;;;;;;;;;18.39;100.00;101297.94;5063581;28;1181;-80
2023/07/22 05:42:44;;;;;;;;;;;;;;;18.36;100.00;101299.09;5064116;28;950;-81
2023/07/22 05:45:13;;;;;;;;;;;;;;;18.32;100.00;101297.72;5063115;28;821;-80
2023/07/22 05:47:39;;;;;;;;;;;;;;;18.33;100.00;101304.84;5063588;28;895;-81
2023/07/22 05:50:06;;;;;;;;;;;;;;;18.44;100.00;101310.00;5062806;28;1890;-80
2023/07/22 05:52:32;;;;;;;;;;;;;;;18.55;100.00;101309.69;5062328;28;798;-80
2023/07/22 05:54:58;;;;;;;;;;;;;;;18.60;100.00;101311.94;5060978;28;739;-80
2023/07/22 05:57:24;;;;;;;;;;;;;;;18.18;100.00;101317.31;5061223;28;803;-80
2023/07/22 05:59:50;;;;;;;;;;;;;;;18.18;100.00;101310.03;5059945;28;1193;-80
2023/07/22 06:02:18;;;;;;;;;;;;;;;18.10;100.00;101314.59;5059337;28;894;-80
2023/07/22 06:04:44;;;;;;;;;;;;;;;18.18;100.00;101309.19;5060879;28;795;-81
2023/07/22 06:07:10;;;;;;;;;;;;;;;18.26;100.00;101318.22;5064352;28;758;-80
2023/07/22 06:09:36;;;;;;;;;;;;;;;18.32;100.00;101316.75;5063916;28;1898;-81
2023/07/22 06:12:02;;;;;;;;;;;;;;;18.38;100.00;101320.66;5063768;28;1265;-81
2023/07/22 06:14:28;;;;;;;;;;;;;;;18.33;100.00;101319.28;5063590;28;890;-81
2023/07/22 06:16:54;;;;;;;;;;;;;;;18.40;100.00;101324.09;5063425;28;921;-81
2023/07/22 06:19:20;;;;;;;;;;;;;;;18.52;100.00;101318.19;5063454;28;735;-81
2023/07/22 06:21:46;;;;;;;;;;;;;;;18.61;100.00;101321.78;5063315;28;1262;-80
2023/07/22 06:24:12;;;;;;;;;;;;;;;18.64;100.00;101310.59;5063125;28;887;-81
2023/07/22 06:26:38;;;;;;;;;;;;;;;18.72;100.00;101318.81;5063656;28;954;-81
2023/07/22 06:29:04;;;;;;;;;;;;;;;18.77;100.00;101316.41;5062941;28;794;-81
2023/07/22 06:31:30;;;;;;;;;;;;;;;18.83;100.00;101317.63;5063036;28;1906;-80
2023/07/22 06:33:59;;;;;;;;;;;;;;;18.96;100.00;101311.72;5063932;28;876;-81
2023/07/22 06:36:26;;;;;;;;;;;;;;;18.90;100.00;101316.81;5062702;28;830;-81
2023/07/22 06:38:52;;;;;;;;;;;;;;;18.95;100.00;101318.19;5062843;28;801;-81
2023/07/22 06:41:19;;;;;;;;;;;;;;;19.12;100.00;101325.34;5077144;28;1189;-81
2023/07/22 06:43:45;;;;;;;;;;;;;;;19.26;100.00;101321.13;5063383;28;900;-80
2023/07/22 06:46:10;;;;;;;;;;;;;;;19.38;100.00;101322.50;5064678;28;795;-80
2023/07/22 06:48:36;;;;;;;;;;;;;;;19.32;100.00;101321.31;5062596;28;903;-81
2023/07/22 06:51:03;;;;;;;;;;;;;;;19.17;100.00;101315.69;5062249;28;1894;-81
2023/07/22 06:53:28;;;;;;;;;;;;;;;19.29;100.00;101316.22;5062682;28;877;-80
2023/07/22 06:55:54;;;;;;;;;;;;;;;19.24;100.00;101328.59;5062775;28;832;-81
2023/07/22 06:58:22;;;;;;;;;;;;;;;19.30;100.00;101319.78;5063251;28;888;-80
2023/07/22 07:00:53;;;;;;;;;;;;;;;19.39;100.00;101313.31;5062200;28;1176;-81
2023/07/22 07:03:19;;;;;;;;;;;;;;;19.42;100.00;101318.41;5062068;28;675;-81
2023/07/22 07:05:51;;;;;;;;;;;;;;;19.47;100.00;101318.78;5062022;28;732;-81
2023/07/22 07:08:17;;;;;;;;;;;;;;;19.55;100.00;101318.75;5062287;28;581;-81
2023/07/22 07:10:43;;;;;;;;;;;;;;;19.59;100.00;101311.16;5062262;28;1902;-81
2023/07/22 07:13:09;;;;;;;;;;;;;;;19.51;100.00;101314.69;5062931;28;838;-81
2023/07/22 07:15:35;;;;;;;;;;;;;;;19.44;100.00;101319.09;5062011;28;842;-81
2023/07/22 07:18:01;;;;;;;;;;;;;;;19.55;100.00;101317.91;5062044;28;728;-81
2023/07/22 07:20:27;;;;;;;;;;;;;;;19.57;100.00;101311.31;5061182;28;1180;-81
2023/07/22 07:22:53;;;;;;;;;;;;;;;19.38;100.00;101309.75;5062142;28;815;-80
2023/07/22 07:25:19;;;;;;;;;;;;;;;19.35;100.00;101312.78;5061630;28;925;-80
2023/07/22 07:27:45;;;;;;;;;;;;;;;19.46;100.00;101312.44;5061717;28;595;-81
2023/07/22 07:30:11;;;;;;;;;;;;;;;19.63;100.00;101317.94;5060624;28;1870;-80
2023/07/22 07:32:37;;;;;;;;;;;;;;;19.73;100.00;101308.56;5061656;28;920;-81
2023/07/22 07:35:04;;;;;;;;;;;;;;;19.85;100.00;101316.38;5061826;28;791;-81
2023/07/22 07:37:32;;;;;;;;;;;;;;;19.71;100.00;101323.38;5061431;28;739;-81
2023/07/22 07:39:59;;;;;;;;;;;;;;;19.92;100.00;101318.25;5061082;28;1298;-81
2023/07/22 07:42:28;;;;;;;;;;;;;;;19.85;100.00;101321.81;5061507;28;880;-81
2023/07/22 07:44:54;;;;;;;;;;;;;;;19.88;100.00;101321.50;5061215;28;848;-81
2023/07/22 07:47:20;;;;;;;;;;;;;;;20.01;100.00;101319.94;5060875;28;810;-81
2023/07/22 07:49:46;;;;;;;;;;;;;;;20.09;100.00;101323.66;5060631;28;1215;-81
2023/07/22 07:52:12;;;;;;;;;;;;;;;20.19;100.00;101319.72;5061618;28;1940;-80
2023/07/22 07:54:38;;;;;;;;;;;;;;;20.24;100.00;101320.03;5061298;28;811;-80
2023/07/22 07:57:05;;;;;;;;;;;;;;;20.31;100.00;101326.47;5060679;28;806;-81
2023/07/22 07:59:31;;;;;;;;;;;;;;;20.38;100.00;101334.81;5060493;28;836;-81
2023/07/22 08:01:57;;;;;;;;;;;;;;;20.30;100.00;101337.56;5061331;28;1188;-81
2023/07/22 08:04:23;;;;;;;;;;;;;;;20.36;100.00;101333.31;5061171;28;846;-82
2023/07/22 08:06:49;;;;;;;;;;;;;;;20.40;100.00;101337.38;5060900;28;868;-81
2023/07/22 08:09:18;;;;;;;;;;;;;;;20.49;100.00;101337.19;5058142;28;813;-81
2023/07/22 08:11:45;;;;;;;;;;;;;;;20.43;100.00;101326.13;5061031;28;1874;-81
2023/07/22 08:14:11;;;;;;;;;;;;;;;20.45;100.00;101321.34;5060161;28;825;-81
2023/07/22 08:16:37;;;;;;;;;;;;;;;20.52;100.00;101338.72;5061459;28;910;-81
2023/07/22 08:19:04;;;;;;;;;;;;;;;20.53;100.00;101330.34;5061380;28;788;-81
2023/07/22 08:21:30;;;;;;;;;;;;;;;20.46;100.00;101323.06;5059783;28;1278;-81
2023/07/22 08:23:56;;;;;;;;;;;;;;;20.50;100.00;101329.88;5060505;28;893;-81
2023/07/22 08:26:23;;;;;;;;;;;;;;;20.60;100.00;101336.81;5060696;28;823;-81
2023/07/22 08:28:49;;;;;;;;;;;;;;;20.70;100.00;101338.47;5060603;28;899;-81
2023/07/22 08:31:15;;;;;;;;;;;;;;;20.64;100.00;101331.84;5059727;28;1959;-81
2023/07/22 08:33:41;;;;;;;;;;;;;;;20.80;100.00;101333.63;5059223;28;832;-81
2023/07/22 08:36:07;;;;;;;;;;;;;;;20.78;100.00;101344.72;5058920;28;952;-81
2023/07/22 08:38:33;;;;;;;;;;;;;;;20.89;100.00;101330.69;5060998;28;720;-81
2023/07/22 08:40:59;;;;;;;;;;;;;;;21.04;100.00;101332.63;5061521;28;1241;-81
2023/07/22 08:43:28;;;;;;;;;;;;;;;21.17;100.00;101322.84;5064386;28;906;-81
2023/07/22 08:45:54;;;;;;;;;;;;;;;21.16;100.00;101326.63;5063999;28;938;-81
2023/07/22 08:48:25;;;;;;;;;;;;;;;21.09;100.00;101331.09;5064049;28;830;-81
2023/07/22 08:50:54;;;;;;;;;;;;;;;20.79;100.00;101337.41;5062967;28;1894;-81
2023/07/22 08:53:21;;;;;;;;;;;;;;;20.84;100.00;101326.78;5079189;28;956;-81
2023/07/22 08:55:50;;;;;;;;;;;;;;;20.67;100.00;101320.59;5064100;28;995;-81
2023/07/22 08:58:16;;;;;;;;;;;;;;;20.56;100.00;101321.00;5063844;28;858;-81
2023/07/22 09:00:42;;;;;;;;;;;;;;;20.58;100.00;101321.66;5064100;28;1279;-81
2023/07/22 09:03:10;;;;;;;;;;;;;;;20.83;100.00;101330.56;5062607;28;764;-81
2023/07/22 09:05:37;;;;;;;;;;;;;;;20.84;100.00;101319.50;5064522;28;920;-81
2023/07/22 09:08:06;;;;;;;;;;;;;;;20.96;100.00;101316.34;5063969;28;803;-81
2023/07/22 09:10:33;;;;;;;;;;;;;;;20.85;100.00;101315.72;5063840;28;1965;-80
2023/07/22 09:13:02;;;;;;;;;;;;;;;20.49;100.00;101309.09;5064701;28;874;-81
2023/07/22 09:15:29;;;;;;;;;;;;;;;20.70;100.00;101320.22;5064300;28;779;-81
2023/07/22 09:17:55;;;;;;;;;;;;;;;20.72;100.00;101322.78;5063380;28;850;-80
2023/07/22 09:20:21;;;;;;;;;;;;;;;20.93;100.00;101320.25;5061618;28;1185;-81
2023/07/22 09:22:49;;;;;;;;;;;;;;;20.98;100.00;101320.59;5063833;28;826;-80
2023/07/22 09:25:18;;;;;;;;;;;;;;;21.25;100.00;101321.09;5063258;28;957;-81
2023/07/22 09:27:49;;;;;;;;;;;;;;;21.51;100.00;101310.69;5063509;28;605;-81
2023/07/22 09:30:23;;;;;;;;;;;;;;;21.67;100.00;101305.09;5063044;28;1195;-81
2023/07/22 09:32:50;;;;;;;;;;;;;;;21.71;100.00;101308.28;5063277;28;911;-81
2023/07/22 09:35:18;;;;;;;;;;;;;;;21.70;100.00;101301.97;5063771;28;794;-81
2023/07/22 09:37:45;;;;;;;;;;;;;;;21.63;100.00;101311.97;5063206;28;806;-81
2023/07/22 09:40:19;;;;;;;;;;;;;;;21.77;100.00;101305.66;5062130;28;1192;-80
2023/07/22 09:42:50;;;;;;;;;;;;;;;21.89;100.00;101307.94;5062941;28;811;-80
2023/07/22 09:45:17;;;;;;;;;;;;;;;22.06;100.00;101293.09;5062979;28;525;-81
2023/07/22 09:47:49;;;;;;;;;;;;;;;22.13;100.00;101299.53;5062838;28;811;-81
2023/07/22 09:50:23;;;;;;;;;;;;;;;21.98;100.00;101310.41;5062026;28;1338;-81
2023/07/22 09:52:51;;;;;;;;;;;;;;;22.06;100.00;101306.75;5061376;28;514;-81
2023/07/22 09:55:20;;;;;;;;;;;;;;;22.04;100.00;101304.19;5061825;28;830;-81
2023/07/22 09:57:50;;;;;;;;;;;;;;;21.95;100.00;101293.56;5062529;28;842;-81
2023/07/22 10:00:20;;;;;;;;;;;;;;;21.65;100.00;101296.22;5060780;28;1291;-81
2023/07/22 10:02:49;;;;;;;;;;;;;;;21.75;100.00;101290.50;5061721;28;565;-81
2023/07/22 10:05:17;;;;;;;;;;;;;;;21.94;100.00;101294.59;5062073;28;827;-80
2023/07/22 10:07:50;;;;;;;;;;;;;;;22.12;100.00;101295.06;5061716;28;653;-81
2023/07/22 10:10:19;;;;;;;;;;;;;;;22.27;100.00;101290.47;5061406;28;1220;-81
2023/07/22 10:12:46;;;;;;;;;;;;;;;22.52;100.00;101279.25;5061879;28;1961;-81
2023/07/22 10:15:14;;;;;;;;;;;;;;;22.66;100.00;101283.81;5061473;28;739;-81
2023/07/22 10:17:44;;;;;;;;;;;;;;;22.76;98.26;101278.91;5061216;28;680;-81
2023/07/22 10:20:15;;;;;;;;;;;;;;;22.79;91.41;101280.38;5060452;28;1251;-82
2023/07/22 10:22:43;;;;;;;;;;;;;;;22.76;100.00;101289.00;5076134;28;837;-81
2023/07/22 10:25:11;;;;;;;;;;;;;;;22.63;87.50;101277.91;5061137;28;990;-81
2023/07/22 10:27:39;;;;;;;;;;;;;;;22.53;91.00;101281.78;5061319;28;658;-81
2023/07/22 10:30:06;;;;;;;;;;;;;;;22.35;93.54;101281.34;5060449;28;1189;-80
2023/07/22 10:32:34;;;;;;;;;;;;;;;22.48;97.42;101278.75;5060612;28;1875;-81
2023/07/22 10:35:00;;;;;;;;;;;;;;;22.61;99.46;101276.22;5060271;28;838;-80
2023/07/22 10:37:31;;;;;;;;;;;;;;;22.66;100.00;101278.34;5060540;28;843;-80
2023/07/22 10:40:29;;;;;;;;;;;;;;;22.76;98.84;101276.16;5060131;28;1272;-81
2023/07/22 10:43:05;;;;;;;;;;;;;;;22.87;100.00;101275.69;5060453;28;807;-81
2023/07/22 10:45:33;;;;;;;;;;;;;;;22.67;100.00;101263.63;5060073;28;556;-81
2023/07/22 10:48:14;;;;;;;;;;;;;;;22.43;100.00;101275.75;5060734;28;866;-80
2023/07/22 10:50:51;;;;;;;;;;;;;;;22.50;96.47;101279.41;5060525;28;1890;-80
2023/07/22 10:53:26;;;;;;;;;;;;;;;22.43;99.90;101274.91;5060153;28;506;-81
2023/07/22 10:56:13;;;;;;;;;;;;;;;22.24;98.06;101279.94;5061101;28;761;-81
2023/07/22 10:58:45;;;;;;;;;;;;;;;21.89;100.00;101281.47;5060960;28;871;-81
2023/07/22 11:01:27;;;;;;;;;;;;;;;21.88;100.00;101273.47;5059968;28;1170;-81
2023/07/22 11:04:12;;;;;;;;;;;;;;;22.01;100.00;101274.50;5060599;28;908;-80
2023/07/22 11:06:48;;;;;;;;;;;;;;;22.15;99.87;101269.28;5060873;28;907;-81
2023/07/22 11:09:27;;;;;;;;;;;;;;;22.13;99.65;101277.69;5059976;28;563;-81
2023/07/22 11:11:54;;;;;;;;;;;;;;;22.22;98.47;101272.94;5060845;28;1965;-81
2023/07/22 11:14:21;;;;;;;;;;;;;;;22.26;99.37;101272.38;5060564;28;799;-80
2023/07/22 11:16:48;;;;;;;;;;;;;;;22.17;99.03;101272.66;5061002;28;799;-81
2023/07/22 11:19:15;;;;;;;;;;;;;;;22.21;100.00;101271.25;5059308;28;918;-82
2023/07/22 11:21:42;;;;;;;;;;;;;;;22.19;100.00;101262.38;5060712;28;1172;-81
2023/07/22 11:24:08;;;;;;;;;;;;;;;22.13;100.00;101264.00;5060894;28;807;-81
2023/07/22 11:26:36;;;;;;;;;;;;;;;22.14;100.00;101270.31;5060460;28;889;-81
2023/07/22 11:29:04;;;;;;;;;;;;;;;22.09;100.00;101275.50;5060329;28;886;-81
2023/07/22 11:31:42;;;;;;;;;;;;;;;21.91;100.00;101273.94;5059469;28;1902;-82
2023/07/22 11:34:09;;;;;;;;;;;;;;;21.83;100.00;101270.44;5060686;28;530;-81
2023/07/22 11:36:35;;;;;;;;;;;;;;;21.75;100.00;101283.16;5060305;28;803;-81
2023/07/22 11:39:13;;;;;;;;;;;;;;;21.53;100.00;101277.72;5060210;28;880;-81
2023/07/22 11:41:42;;;;;;;;;;;;;;;21.43;100.00;101281.59;5060508;28;1240;-81
2023/07/22 11:44:12;;;;;;;;;;;;;;;21.43;100.00;101283.44;5060364;28;947;-81
2023/07/22 11:46:51;;;;;;;;;;;;;;;21.46;100.00;101288.56;5060355;28;838;-80
2023/07/22 11:49:33;;;;;;;;;;;;;;;21.51;100.00;101288.00;5060186;28;794;-81
2023/07/22 11:52:07;;;;;;;;;;;;;;;21.38;100.00;101310.44;5059331;28;1967;-80
2023/07/22 11:54:35;;;;;;;;;;;;;;;21.25;100.00;101318.38;5060448;28;660;-82
2023/07/22 11:57:18;;;;;;;;;;;;;;;21.18;100.00;101319.09;5058683;28;829;-81
2023/07/22 11:59:54;;;;;;;;;;;;;;;21.08;100.00;101317.63;5059317;28;1181;-81
2023/07/22 12:02:21;;;;;;;;;;;;;;;21.05;100.00;101327.03;5060869;28;579;-81
2023/07/22 12:04:56;;;;;;;;;;;;;;;21.02;100.00;101324.66;5060456;28;951;-81
2023/07/22 12:07:25;;;;;;;;;;;;;;;20.98;100.00;101319.75;5060465;28;810;-81
2023/07/22 12:09:53;;;;;;;;;;;;;;;20.88;100.00;101315.38;5060077;28;1245;-81
2023/07/22 12:12:19;;;;;;;;;;;;;;;20.77;100.00;101313.03;5059930;28;1961;-80
2023/07/22 12:14:45;;;;;;;;;;;;;;;20.79;100.00;101310.97;5060678;28;904;-82
2023/07/22 12:17:11;;;;;;;;;;;;;;;20.81;100.00;101316.25;5063868;28;787;-81
2023/07/22 12:19:37;;;;;;;;;;;;;;;20.83;100.00;101306.00;5062326;28;917;-82
2023/07/22 12:22:03;;;;;;;;;;;;;;;20.85;100.00;101304.81;5064077;28;1235;-81
2023/07/22 12:24:29;;;;;;;;;;;;;;;20.91;100.00;101297.78;5064488;28;955;-81
2023/07/22 12:26:55;;;;;;;;;;;;;;;20.91;100.00;101301.34;5063844;28;950;-81
2023/07/22 12:29:25;;;;;;;;;;;;;;;20.88;100.00;101304.44;5063286;28;919;-82
2023/07/22 12:31:52;;;;;;;;;;;;;;;20.87;100.00;101301.91;5063992;28;1910;-82
2023/07/22 12:34:18;;;;;;;;;;;;;;;20.85;100.00;101301.25;5063752;28;850;-81
2023/07/22 12:36:44;;;;;;;;;;;;;;;20.88;100.00;101306.34;5064195;28;909;-81
2023/07/22 12:39:09;;;;;;;;;;;;;;;20.94;100.00;101293.84;5063654;28;810;-82
2023/07/22 12:41:35;;;;;;;;;;;;;;;21.01;100.00;101303.00;5063700;28;1161;-81
2023/07/22 12:44:02;;;;;;;;;;;;;;;21.06;100.00;101298.72;5063850;28;966;-82
2023/07/22 12:46:28;;;;;;;;;;;;;;;21.07;100.00;101299.56;5063903;28;819;-81